Time;durP1;ratioP1;P1;durP2;ratioP2;P2;SDS_P1;SDS_P2;PMS_P1;PMS_P2;Temp;Humidity;BMP_temperature;BMP_pressure;BME280_temperature;BME280_humidity;BME280_pressure;Samples;Min_cycle;Max_cycle;Signal;HPM_P1;HPM_P2
2023/07/07 00:01:57;;;;;;;2.35;2.10;;;17.60;71.20;;;;;;5059482;28;20068;-67
2023/07/07 00:04:23;;;;;;;4.05;2.50;;;17.60;71.30;;;;;;5065748;28;20028;-67
2023/07/07 00:06:49;;;;;;;3.65;2.47;;;17.60;71.20;;;;;;5051062;28;20033;-66
2023/07/07 00:09:16;;;;;;;3.20;2.53;;;17.50;71.20;;;;;;5053555;28;20095;-67
2023/07/07 00:11:42;;;;;;;3.53;2.35;;;17.50;71.20;;;;;;5054119;28;20111;-67
2023/07/07 00:14:08;;;;;;;3.08;2.55;;;17.50;71.30;;;;;;5044419;28;20112;-67
2023/07/07 00:16:37;;;;;;;5.70;3.20;;;17.50;71.30;;;;;;5052782;28;20105;-67
2023/07/07 00:19:03;;;;;;;3.58;2.80;;;17.50;71.20;;;;;;5051877;28;20032;-67
2023/07/07 00:21:29;;;;;;;3.15;2.53;;;17.40;71.30;;;;;;5056595;28;20582;-67
2023/07/07 00:23:57;;;;;;;3.53;2.88;;;17.40;71.60;;;;;;5051035;28;20037;-67
2023/07/07 00:26:24;;;;;;;4.18;2.92;;;17.40;71.70;;;;;;5051844;28;20025;-67
2023/07/07 00:28:50;;;;;;;4.65;3.00;;;17.40;71.80;;;;;;5043909;28;20032;-67
2023/07/07 00:31:17;;;;;;;4.03;2.80;;;17.40;71.80;;;;;;5052032;28;20033;-67
2023/07/07 00:33:43;;;;;;;3.38;2.35;;;17.40;71.70;;;;;;5052246;28;20078;-67
2023/07/07 00:36:08;;;;;;;3.67;2.55;;;17.40;71.50;;;;;;5063295;28;20429;-67
2023/07/07 00:38:34;;;;;;;5.13;2.83;;;17.40;71.50;;;;;;5052562;28;20021;-67
2023/07/07 00:41:01;;;;;;;4.72;2.90;;;17.40;71.70;;;;;;5063103;28;20028;-67
2023/07/07 00:43:27;;;;;;;4.70;2.75;;;17.30;71.80;;;;;;5052498;28;20530;-67
2023/07/07 00:45:53;;;;;;;5.10;3.30;;;17.30;71.80;;;;;;5058367;28;20025;-67
2023/07/07 00:48:23;;;;;;;4.35;3.03;;;17.30;71.80;;;;;;5052318;28;20544;-67
2023/07/07 00:50:53;;;;;;;3.80;2.58;;;17.30;72.10;;;;;;5060873;28;20380;-67
2023/07/07 00:53:19;;;;;;;5.32;2.97;;;17.20;72.20;;;;;;5051267;28;20107;-67
2023/07/07 00:55:51;;;;;;;3.88;2.90;;;17.20;72.20;;;;;;5052980;28;20465;-67
2023/07/07 00:58:20;;;;;;;3.80;2.85;;;17.20;72.30;;;;;;5051569;28;20078;-67
2023/07/07 01:00:57;;;;;;;5.45;3.28;;;17.20;72.30;;;;;;5051704;28;20088;-67
2023/07/07 01:03:26;;;;;;;6.22;2.97;;;17.10;72.50;;;;;;5044899;28;20114;-67
2023/07/07 01:05:56;;;;;;;5.53;3.00;;;17.10;72.60;;;;;;5064265;28;20024;-67
2023/07/07 01:08:22;;;;;;;4.78;2.88;;;17.10;72.70;;;;;;5051758;28;20422;-67
2023/07/07 01:10:48;;;;;;;4.07;3.10;;;17.10;72.60;;;;;;5051240;28;20021;-67
2023/07/07 01:13:14;;;;;;;3.70;2.53;;;17.00;72.60;;;;;;5051413;28;20091;-67
2023/07/07 01:16:12;;;;;;;4.78;2.60;;;17.00;73.20;;;;;;5033396;28;20029;-67
2023/07/07 01:18:59;;;;;;;4.18;2.72;;;17.00;72.40;;;;;;5024302;28;21110;-67
2023/07/07 01:21:32;;;;;;;6.25;2.80;;;17.10;72.30;;;;;;5055685;28;20044;-67
2023/07/07 01:24:25;;;;;;;3.08;2.45;;;17.10;72.20;;;;;;5050822;28;20021;-67
2023/07/07 01:27:21;;;;;;;5.20;2.90;;;17.10;72.00;;;;;;5053179;28;20025;-68
2023/07/07 01:30:02;;;;;;;4.97;3.00;;;17.10;71.90;;;;;;5037749;28;20024;-67
2023/07/07 01:32:34;;;;;;;6.03;3.97;;;17.20;71.80;;;;;;5050932;28;20465;-67
2023/07/07 01:35:09;;;;;;;5.38;3.53;;;17.20;71.80;;;;;;5051832;28;20063;-68
2023/07/07 01:37:34;;;;;;;4.07;3.13;;;17.20;71.80;;;;;;5053273;28;20024;-67
2023/07/07 01:40:01;;;;;;;4.32;2.95;;;17.20;71.80;;;;;;5057778;28;20551;-67
2023/07/07 01:42:34;;;;;;;4.22;3.10;;;17.10;71.80;;;;;;5064631;28;20048;-67
2023/07/07 01:45:08;;;;;;;4.53;2.78;;;17.20;72.10;;;;;;5050785;28;20029;-67
2023/07/07 01:47:37;;;;;;;3.75;2.80;;;17.10;71.90;;;;;;5050782;28;20033;-67
2023/07/07 01:50:05;;;;;;;4.88;3.10;;;17.10;72.00;;;;;;5050433;28;20033;-67
2023/07/07 01:52:44;;;;;;;4.43;2.92;;;17.10;72.00;;;;;;5050611;28;20048;-68
2023/07/07 01:55:34;;;;;;;5.13;3.30;;;17.10;72.00;;;;;;5054566;28;20029;-67
2023/07/07 01:58:03;;;;;;;4.15;2.80;;;17.00;72.00;;;;;;5047716;28;20095;-68
2023/07/07 02:00:30;;;;;;;5.18;3.10;;;16.90;72.30;;;;;;5033851;28;20412;-68
2023/07/07 02:02:58;;;;;;;5.38;3.60;;;16.90;72.50;;;;;;5053936;28;20028;-68
2023/07/07 02:05:24;;;;;;;5.20;4.07;;;16.90;72.50;;;;;;5049569;28;20028;-68
2023/07/07 02:07:49;;;;;;;4.88;3.10;;;16.90;72.60;;;;;;5051391;28;20051;-68
2023/07/07 02:10:15;;;;;;;4.22;3.40;;;16.80;72.60;;;;;;5032213;28;20021;-68
2023/07/07 02:12:41;;;;;;;5.07;3.90;;;16.80;72.70;;;;;;5049176;28;20072;-67
2023/07/07 02:15:07;;;;;;;6.05;3.65;;;16.80;72.80;;;;;;5051820;28;20033;-67
2023/07/07 02:17:33;;;;;;;4.63;3.40;;;16.80;73.10;;;;;;5051748;28;20377;-67
2023/07/07 02:19:58;;;;;;;4.28;3.25;;;16.70;73.20;;;;;;5049789;28;20027;-67
2023/07/07 02:22:24;;;;;;;4.18;3.63;;;16.70;73.20;;;;;;5049919;28;20099;-67
2023/07/07 02:24:50;;;;;;;5.05;3.42;;;16.70;73.30;;;;;;5052145;28;20063;-67
2023/07/07 02:27:16;;;;;;;4.72;3.95;;;16.70;73.30;;;;;;5056871;28;20626;-67
2023/07/07 02:29:41;;;;;;;4.45;3.33;;;16.70;73.30;;;;;;5051000;28;20036;-67
2023/07/07 02:32:07;;;;;;;5.82;3.85;;;16.60;73.40;;;;;;5047780;28;20086;-67
2023/07/07 02:34:34;;;;;;;4.32;3.33;;;16.60;73.50;;;;;;5036159;28;20017;-67
2023/07/07 02:37:00;;;;;;;5.07;3.72;;;16.60;73.50;;;;;;5056144;28;20028;-68
2023/07/07 02:39:26;;;;;;;5.40;3.55;;;16.60;73.60;;;;;;5066464;28;20032;-67
2023/07/07 02:41:52;;;;;;;6.10;3.67;;;16.50;73.50;;;;;;5053610;28;20025;-67
2023/07/07 02:44:18;;;;;;;4.40;3.38;;;16.50;73.50;;;;;;5048999;28;20082;-67
2023/07/07 02:46:44;;;;;;;5.05;3.35;;;16.50;73.80;;;;;;5051734;28;20059;-67
2023/07/07 02:49:10;;;;;;;5.65;3.90;;;16.50;73.90;;;;;;5049715;28;20049;-67
2023/07/07 02:51:36;;;;;;;5.30;3.40;;;16.40;74.00;;;;;;5054887;28;20028;-67
2023/07/07 02:54:01;;;;;;;3.92;3.17;;;16.40;74.10;;;;;;5053429;28;20029;-67
2023/07/07 02:56:27;;;;;;;4.97;3.38;;;16.40;74.20;;;;;;5050165;28;20021;-66
2023/07/07 02:58:53;;;;;;;5.25;3.20;;;16.30;74.20;;;;;;5049808;28;20017;-67
2023/07/07 03:01:20;;;;;;;4.68;3.20;;;16.30;74.40;;;;;;5049090;28;20024;-67
2023/07/07 03:03:49;;;;;;;3.63;2.88;;;16.20;74.60;;;;;;5051185;28;20027;-67
2023/07/07 03:06:21;;;;;;;4.40;3.22;;;16.20;74.70;;;;;;5050086;28;20159;-67
2023/07/07 03:08:47;;;;;;;4.70;3.17;;;16.20;74.60;;;;;;5054870;28;20025;-67
2023/07/07 03:11:15;;;;;;;4.40;3.40;;;16.20;74.50;;;;;;5059483;28;20029;-67
2023/07/07 03:13:41;;;;;;;4.97;3.20;;;16.20;74.60;;;;;;5053758;28;20033;-67
2023/07/07 03:16:22;;;;;;;6.00;3.35;;;16.20;74.50;;;;;;5049025;28;20035;-68
2023/07/07 03:18:51;;;;;;;3.63;2.90;;;16.30;74.50;;;;;;5049788;28;20036;-68
2023/07/07 03:21:18;;;;;;;5.55;3.25;;;16.30;74.50;;;;;;5049703;28;20967;-68
2023/07/07 03:23:45;;;;;;;5.35;3.70;;;16.30;74.50;;;;;;5064806;28;20086;-67
2023/07/07 03:26:13;;;;;;;5.38;3.40;;;16.30;74.50;;;;;;5064986;28;20017;-67
2023/07/07 03:28:40;;;;;;;4.13;3.13;;;16.20;74.50;;;;;;5031352;28;20572;-68
2023/07/07 03:31:13;;;;;;;4.35;3.28;;;16.20;74.50;;;;;;5050378;28;20120;-68
2023/07/07 03:33:41;;;;;;;6.80;3.35;;;16.20;74.60;;;;;;5054279;28;20026;-67
2023/07/07 03:36:10;;;;;;;5.13;3.50;;;16.20;74.60;;;;;;5048767;28;20464;-67
2023/07/07 03:38:36;;;;;;;3.70;2.92;;;16.20;74.60;;;;;;5049018;28;20048;-68
2023/07/07 03:41:01;;;;;;;4.43;3.03;;;16.20;75.30;;;;;;5034068;28;20039;-67
2023/07/07 03:43:27;;;;;;;4.13;3.25;;;16.30;74.80;;;;;;5053689;28;20032;-67
2023/07/07 03:45:53;;;;;;;5.55;3.17;;;16.30;74.80;;;;;;5051483;28;20021;-67
2023/07/07 03:48:19;;;;;;;5.75;3.65;;;16.30;74.80;;;;;;5048538;28;20494;-68
2023/07/07 03:51:03;;;;;;;5.18;3.80;;;16.30;74.90;;;;;;5052513;28;20044;-67
2023/07/07 03:53:31;;;;;;;5.50;3.67;;;16.30;75.00;;;;;;5047255;28;20549;-67
2023/07/07 03:55:57;;;;;;;3.92;3.33;;;16.40;75.10;;;;;;5052171;28;20480;-67
2023/07/07 03:58:24;;;;;;;4.55;3.30;;;16.30;75.00;;;;;;5034812;28;20101;-67
2023/07/07 04:00:50;;;;;;;4.82;3.58;;;16.40;75.10;;;;;;5060056;28;20385;-67
2023/07/07 04:03:16;;;;;;;4.72;3.28;;;16.40;75.20;;;;;;5063110;28;20104;-67
2023/07/07 04:05:43;;;;;;;4.40;3.33;;;16.40;75.10;;;;;;5052740;28;20025;-67
2023/07/07 04:08:09;;;;;;;5.65;3.28;;;16.40;75.20;;;;;;5057101;28;20056;-67
2023/07/07 04:10:35;;;;;;;4.90;3.67;;;16.40;75.10;;;;;;5059111;28;20510;-67
2023/07/07 04:13:01;;;;;;;4.75;3.58;;;16.40;75.20;;;;;;5052562;28;20025;-67
2023/07/07 04:15:26;;;;;;;5.10;3.78;;;16.40;75.20;;;;;;5051660;28;20036;-67
2023/07/07 04:17:52;;;;;;;6.07;3.75;;;16.50;75.10;;;;;;5051950;28;20024;-67
2023/07/07 04:20:17;;;;;;;5.72;4.35;;;16.50;75.30;;;;;;5052621;28;20025;-67
2023/07/07 04:22:43;;;;;;;8.32;4.78;;;16.50;75.30;;;;;;5033727;28;20547;-67
2023/07/07 04:25:10;;;;;;;6.75;3.92;;;16.50;75.50;;;;;;5054601;28;20052;-67
2023/07/07 04:27:35;;;;;;;4.07;3.65;;;16.50;75.40;;;;;;5034319;28;20064;-67
2023/07/07 04:30:02;;;;;;;5.43;3.60;;;16.60;75.30;;;;;;5052355;28;20060;-67
2023/07/07 04:32:28;;;;;;;8.10;4.28;;;16.60;75.20;;;;;;5051804;28;20067;-67
2023/07/07 04:34:53;;;;;;;6.93;4.20;;;16.70;75.20;;;;;;5064588;28;20044;-67
2023/07/07 04:37:20;;;;;;;6.07;3.78;;;16.70;75.00;;;;;;5051398;28;20471;-67
2023/07/07 04:39:45;;;;;;;7.10;4.10;;;16.80;74.90;;;;;;5037786;28;20017;-67
2023/07/07 04:42:11;;;;;;;6.20;3.67;;;16.80;74.80;;;;;;5051727;28;20044;-67
2023/07/07 04:44:36;;;;;;;7.68;4.20;;;16.90;74.80;;;;;;5056656;28;20044;-67
2023/07/07 04:47:02;;;;;;;5.40;3.83;;;16.90;74.60;;;;;;5065808;28;20394;-67
2023/07/07 04:49:28;;;;;;;7.13;4.97;;;17.00;74.50;;;;;;5056504;28;20384;-67
2023/07/07 04:51:53;;;;;;;7.00;4.10;;;17.00;74.40;;;;;;5039136;28;20155;-67
2023/07/07 04:54:19;;;;;;;5.57;3.80;;;17.10;74.30;;;;;;5051376;28;20025;-67
2023/07/07 04:56:44;;;;;;;5.85;3.90;;;17.10;74.20;;;;;;5051794;28;20021;-68
2023/07/07 04:59:10;;;;;;;6.40;3.75;;;17.20;74.10;;;;;;5054523;28;20077;-68
2023/07/07 05:01:37;;;;;;;8.27;3.90;;;17.80;73.40;;;;;;5050900;28;20023;-68
2023/07/07 05:04:04;;;;;;;5.30;3.63;;;18.50;71.70;;;;;;5032782;28;20080;-68
2023/07/07 05:06:32;;;;;;;5.57;3.60;;;19.20;69.90;;;;;;5051731;28;20021;-68
2023/07/07 05:08:58;;;;;;;5.95;3.85;;;19.80;68.10;;;;;;5056598;28;20041;-67
2023/07/07 05:11:25;;;;;;;6.75;4.38;;;20.30;66.30;;;;;;5046652;28;20110;-67
2023/07/07 05:13:52;;;;;;;6.82;4.00;;;20.80;65.00;;;;;;5053839;28;20029;-67
2023/07/07 05:16:20;;;;;;;6.47;4.35;;;21.20;63.80;;;;;;5051705;28;20056;-67
2023/07/07 05:18:46;;;;;;;6.47;3.72;;;21.50;62.70;;;;;;5050088;28;20422;-68
2023/07/07 05:21:14;;;;;;;6.38;4.43;;;21.80;62.00;;;;;;5041790;28;20086;-68
2023/07/07 05:23:40;;;;;;;6.70;4.45;;;22.00;61.10;;;;;;5052181;28;20033;-68
2023/07/07 05:26:07;;;;;;;6.57;4.15;;;22.20;60.60;;;;;;5053265;28;20557;-67
2023/07/07 05:28:32;;;;;;;8.15;4.40;;;22.40;60.10;;;;;;5050800;28;20029;-68
2023/07/07 05:30:58;;;;;;;5.55;4.22;;;22.60;59.60;;;;;;5045927;28;20099;-67
2023/07/07 05:33:24;;;;;;;6.18;4.05;;;22.70;59.00;;;;;;5052401;28;20040;-68
2023/07/07 05:35:52;;;;;;;5.93;3.53;;;22.90;58.80;;;;;;5058832;28;20028;-68
2023/07/07 05:38:20;;;;;;;7.93;4.40;;;23.10;58.40;;;;;;5034409;28;20162;-68
2023/07/07 05:40:46;;;;;;;6.72;5.03;;;23.20;57.70;;;;;;5039694;28;20017;-69
2023/07/07 05:43:16;;;;;;;7.25;3.97;;;23.10;57.40;;;;;;5052378;28;20115;-69
2023/07/07 05:45:42;;;;;;;5.88;4.10;;;23.00;57.40;;;;;;5066188;28;20115;-69
2023/07/07 05:48:09;;;;;;;6.53;3.97;;;23.10;57.50;;;;;;5054191;28;20041;-68
2023/07/07 05:50:35;;;;;;;5.60;3.90;;;23.00;57.80;;;;;;5050639;28;20427;-68
2023/07/07 05:53:02;;;;;;;7.90;4.00;;;23.10;58.00;;;;;;5049343;28;20025;-69
2023/07/07 05:55:33;;;;;;;6.90;3.47;;;23.20;58.10;;;;;;5049507;28;20032;-68
2023/07/07 05:58:00;;;;;;;5.22;3.28;;;23.20;58.10;;;;;;5050335;28;20021;-68
2023/07/07 06:00:27;;;;;;;7.35;4.18;;;23.20;58.00;;;;;;5051109;28;20020;-69
2023/07/07 06:02:54;;;;;;;5.35;4.50;;;23.00;58.20;;;;;;5048567;28;20025;-69
2023/07/07 06:05:20;;;;;;;5.63;3.83;;;22.80;58.20;;;;;;5050809;28;20040;-69
2023/07/07 06:07:46;;;;;;;5.90;3.85;;;22.60;58.90;;;;;;5049926;28;20033;-69
2023/07/07 06:10:12;;;;;;;5.65;3.90;;;22.60;59.30;;;;;;5051594;28;20041;-70
2023/07/07 06:12:38;;;;;;;6.28;3.92;;;22.40;59.40;;;;;;5030843;28;20104;-69
2023/07/07 06:15:05;;;;;;;7.18;4.20;;;22.30;59.80;;;;;;5049100;28;20033;-69
2023/07/07 06:17:31;;;;;;;6.53;3.65;;;22.20;59.90;;;;;;5049044;28;20112;-69
2023/07/07 06:19:57;;;;;;;4.90;3.20;;;22.30;60.30;;;;;;5048792;28;20095;-69
2023/07/07 06:22:22;;;;;;;5.55;4.05;;;22.40;60.30;;;;;;5050258;28;20025;-69
2023/07/07 06:24:48;;;;;;;6.85;3.53;;;22.30;59.80;;;;;;5065705;28;20029;-70
2023/07/07 06:27:14;;;;;;;5.35;3.90;;;22.20;59.80;;;;;;5050523;28;20672;-70
2023/07/07 06:29:39;;;;;;;7.53;4.55;;;22.20;60.00;;;;;;5050803;28;20488;-69
2023/07/07 06:32:05;;;;;;;5.80;3.80;;;22.20;59.60;;;;;;5053733;28;20087;-69
2023/07/07 06:34:31;;;;;;;6.78;4.13;;;22.30;59.70;;;;;;5058582;28;20025;-70
2023/07/07 06:36:59;;;;;;;6.07;3.90;;;22.30;59.60;;;;;;5057329;28;20068;-69
2023/07/07 06:39:26;;;;;;;8.07;3.80;;;22.40;59.80;;;;;;5057931;28;20013;-70
2023/07/07 06:41:55;;;;;;;6.78;4.00;;;22.50;59.70;;;;;;5050202;28;20036;-69
2023/07/07 06:44:21;;;;;;;5.43;3.55;;;22.50;59.40;;;;;;5065082;28;20017;-69
2023/07/07 06:46:47;;;;;;;6.68;3.80;;;22.50;58.80;;;;;;5050543;28;20349;-69
2023/07/07 06:49:12;;;;;;;7.38;4.20;;;22.60;59.00;;;;;;5055408;28;20036;-69
2023/07/07 06:51:38;;;;;;;5.07;3.22;;;22.70;58.90;;;;;;5054918;28;20530;-69
2023/07/07 06:54:04;;;;;;;5.85;3.90;;;22.90;58.90;;;;;;5059045;28;20024;-69
2023/07/07 06:56:29;;;;;;;6.45;3.58;;;23.00;58.40;;;;;;5055078;28;20061;-69
2023/07/07 06:58:55;;;;;;;5.95;3.50;;;23.20;58.00;;;;;;5059465;28;20035;-70
2023/07/07 07:01:21;;;;;;;6.80;3.92;;;23.30;57.60;;;;;;5049840;28;20033;-69
2023/07/07 07:03:46;;;;;;;6.28;3.90;;;23.30;57.30;;;;;;5049987;28;20013;-69
2023/07/07 07:06:13;;;;;;;9.02;4.40;;;23.40;57.50;;;;;;5030005;28;20085;-69
2023/07/07 07:08:38;;;;;;;8.82;4.65;;;23.50;56.90;;;;;;5049373;28;20010;-69
2023/07/07 07:11:05;;;;;;;7.38;3.83;;;23.50;56.60;;;;;;5057317;28;20029;-69
2023/07/07 07:13:31;;;;;;;7.72;4.30;;;23.60;56.70;;;;;;5032762;28;20040;-69
2023/07/07 07:15:57;;;;;;;7.43;3.85;;;23.80;56.80;;;;;;5058023;28;20492;-69
2023/07/07 07:18:22;;;;;;;7.72;3.50;;;23.90;56.20;;;;;;5073937;28;20024;-69
2023/07/07 07:20:49;;;;;;;9.23;4.22;;;24.00;56.00;;;;;;5068998;28;20035;-69
2023/07/07 07:23:15;;;;;;;7.97;3.63;;;24.10;55.10;;;;;;5052650;28;20035;-69
2023/07/07 07:25:42;;;;;;;6.35;3.65;;;24.20;54.70;;;;;;5056822;28;20020;-69
2023/07/07 07:28:08;;;;;;;8.65;4.13;;;24.20;54.30;;;;;;5054834;28;20032;-69
2023/07/07 07:30:34;;;;;;;7.10;4.00;;;24.20;54.00;;;;;;5058152;28;20086;-69
2023/07/07 07:33:04;;;;;;;7.53;3.47;;;24.20;54.10;;;;;;5038867;28;20041;-69
2023/07/07 07:35:29;;;;;;;7.32;3.85;;;24.30;54.50;;;;;;5049208;28;20017;-69
2023/07/07 07:37:55;;;;;;;7.82;4.20;;;24.40;54.00;;;;;;5053291;28;20380;-69
2023/07/07 07:40:23;;;;;;;7.60;3.88;;;24.50;53.90;;;;;;5053648;28;20377;-69
2023/07/07 07:42:49;;;;;;;6.32;3.40;;;24.50;53.20;;;;;;5050156;28;20029;-69
2023/07/07 07:45:18;;;;;;;5.53;2.90;;;24.60;53.50;;;;;;5059174;28;20097;-69
2023/07/07 07:47:44;;;;;;;7.32;3.70;;;24.70;53.20;;;;;;5042794;28;20037;-70
2023/07/07 07:50:10;;;;;;;6.70;3.53;;;24.60;52.60;;;;;;5048962;28;20033;-70
2023/07/07 07:52:36;;;;;;;5.00;2.95;;;24.60;52.60;;;;;;5044736;28;20036;-69
2023/07/07 07:55:01;;;;;;;6.60;3.60;;;24.60;52.80;;;;;;5046512;28;20021;-69
2023/07/07 07:57:27;;;;;;;6.18;3.00;;;24.80;52.80;;;;;;5049601;28;20065;-70
2023/07/07 07:59:53;;;;;;;6.13;3.45;;;25.00;52.30;;;;;;5051599;28;20028;-70
2023/07/07 08:02:18;;;;;;;5.22;2.88;;;25.10;51.90;;;;;;5058695;28;20026;-69
2023/07/07 08:04:44;;;;;;;5.75;3.00;;;25.20;51.70;;;;;;5050795;28;20032;-70
2023/07/07 08:07:10;;;;;;;4.80;2.60;;;25.40;51.80;;;;;;5047548;28;20048;-70
2023/07/07 08:09:35;;;;;;;3.95;2.47;;;25.40;50.70;;;;;;5048246;28;20021;-70
2023/07/07 08:12:01;;;;;;;5.75;2.60;;;25.20;49.30;;;;;;5045334;28;20036;-69
2023/07/07 08:14:31;;;;;;;3.70;2.08;;;25.20;49.60;;;;;;5048765;28;20021;-69
2023/07/07 08:17:08;;;;;;;2.72;2.00;;;25.20;50.00;;;;;;5047391;28;20168;-70
2023/07/07 08:19:36;;;;;;;4.13;2.13;;;25.20;49.50;;;;;;5049384;28;20887;-69
2023/07/07 08:22:08;;;;;;;3.40;2.08;;;25.20;48.40;;;;;;5054107;28;20055;-69
2023/07/07 08:24:37;;;;;;;3.80;2.25;;;25.30;48.60;;;;;;5050260;28;20368;-70
2023/07/07 08:27:03;;;;;;;3.03;2.15;;;25.30;48.00;;;;;;5042778;28;20040;-70
2023/07/07 08:29:29;;;;;;;4.07;2.10;;;25.30;47.50;;;;;;5044970;28;20037;-70
2023/07/07 08:31:55;;;;;;;4.10;2.10;;;25.30;46.90;;;;;;5040825;28;20041;-69
2023/07/07 08:34:20;;;;;;;4.15;1.88;;;25.20;47.20;;;;;;5054261;28;20655;-70
2023/07/07 08:36:47;;;;;;;5.03;1.90;;;25.30;48.10;;;;;;5049320;28;20104;-70
2023/07/07 08:39:16;;;;;;;3.78;1.70;;;25.40;48.00;;;;;;5047516;28;20499;-69
2023/07/07 08:41:50;;;;;;;2.95;1.88;;;25.60;47.70;;;;;;5053331;28;20055;-69
2023/07/07 08:44:20;;;;;;;3.65;1.88;;;25.70;47.50;;;;;;5049880;28;20476;-69
2023/07/07 08:47:01;;;;;;;3.63;1.90;;;25.80;47.80;;;;;;5052467;28;20471;-69
2023/07/07 08:49:39;;;;;;;2.65;1.60;;;26.00;47.50;;;;;;5049211;28;20021;-69
2023/07/07 08:52:29;;;;;;;2.85;1.90;;;26.20;47.70;;;;;;5050143;28;20035;-69
2023/07/07 08:55:10;;;;;;;4.47;2.10;;;26.20;46.60;;;;;;5032178;28;20029;-70
2023/07/07 08:57:47;;;;;;;3.78;1.95;;;26.30;46.30;;;;;;5050965;28;20823;-70
2023/07/07 09:00:24;;;;;;;4.30;1.90;;;26.40;46.30;;;;;;5053167;28;20108;-70
2023/07/07 09:03:32;;;;;;;2.83;1.90;;;26.50;46.20;;;;;;5051685;28;20028;-70
2023/07/07 09:06:27;;;;;;;3.65;1.80;;;26.50;45.80;;;;;;5054190;28;20075;-70
2023/07/07 09:09:18;;;;;;;2.75;1.98;;;26.50;46.10;;;;;;5052829;28;20029;-70
2023/07/07 09:12:08;;;;;;;3.53;1.80;;;26.60;45.20;;;;;;5051576;28;20104;-70
2023/07/07 09:14:35;;;;;;;2.60;1.75;;;26.50;44.60;;;;;;5049434;28;20491;-70
2023/07/07 09:17:09;;;;;;;3.10;1.70;;;26.50;45.20;;;;;;5032272;28;20031;-70
2023/07/07 09:19:39;;;;;;;2.83;1.70;;;26.60;44.80;;;;;;5049678;28;20017;-70
2023/07/07 09:22:18;;;;;;;2.95;1.80;;;26.60;44.50;;;;;;5032757;28;20032;-70
2023/07/07 09:24:52;;;;;;;4.63;1.65;;;26.90;45.00;;;;;;5050574;28;20048;-70
2023/07/07 09:27:28;;;;;;;3.72;1.80;;;26.90;44.30;;;;;;5050492;28;20056;-69
2023/07/07 09:30:13;;;;;;;3.33;1.80;;;26.90;43.90;;;;;;5049833;28;20095;-70
2023/07/07 09:32:38;;;;;;;3.60;1.60;;;27.00;43.80;;;;;;5060286;28;20055;-69
2023/07/07 09:35:10;;;;;;;3.53;1.60;;;27.10;43.10;;;;;;5057109;28;20029;-70
2023/07/07 09:38:03;;;;;;;3.50;1.83;;;27.20;43.40;;;;;;5048791;28;20017;-70
2023/07/07 09:40:53;;;;;;;2.17;1.80;;;27.20;43.10;;;;;;5048345;28;20029;-70
2023/07/07 09:43:59;;;;;;;5.13;2.00;;;27.30;43.60;;;;;;5047472;28;20020;-70
2023/07/07 09:46:52;;;;;;;2.17;1.60;;;27.30;42.60;;;;;;5034511;28;20075;-69
2023/07/07 09:49:37;;;;;;;3.72;1.98;;;27.20;43.00;;;;;;5029012;28;20029;-69
2023/07/07 09:52:31;;;;;;;3.05;1.80;;;27.20;42.50;;;;;;5047804;28;20033;-70
2023/07/07 09:54:59;;;;;;;2.97;2.00;;;27.20;42.00;;;;;;5051325;28;20028;-70
2023/07/07 09:57:31;;;;;;;4.45;1.83;;;27.20;41.20;;;;;;5051643;28;20035;-70
2023/07/07 09:59:59;;;;;;;3.38;1.90;;;27.30;41.60;;;;;;5047664;28;20064;-70
2023/07/07 10:02:25;;;;;;;2.75;1.88;;;27.20;41.30;;;;;;5048371;28;20111;-68
2023/07/07 10:05:05;;;;;;;4.40;2.00;;;27.20;41.00;;;;;;5050704;28;20032;-68
2023/07/07 10:07:36;;;;;;;3.70;1.73;;;27.10;41.40;;;;;;5048989;28;20112;-68
2023/07/07 10:10:03;;;;;;;3.00;1.73;;;27.30;41.90;;;;;;5048488;28;20120;-67
2023/07/07 10:12:29;;;;;;;3.20;1.50;;;27.40;41.30;;;;;;5052766;28;20834;-67
2023/07/07 10:14:55;;;;;;;2.67;1.80;;;27.50;41.40;;;;;;5062719;28;20017;-67
2023/07/07 10:17:29;;;;;;;2.30;1.63;;;27.60;41.60;;;;;;5051248;28;20021;-67
2023/07/07 10:19:59;;;;;;;3.10;2.00;;;27.70;41.90;;;;;;5048187;28;20084;-67
2023/07/07 10:22:24;;;;;;;3.40;1.80;;;27.90;41.90;;;;;;5049200;28;20094;-67
2023/07/07 10:24:50;;;;;;;3.65;1.60;;;28.10;41.50;;;;;;5049221;28;20483;-67
2023/07/07 10:27:20;;;;;;;2.22;1.52;;;28.20;41.30;;;;;;5045578;28;20119;-67
2023/07/07 10:29:47;;;;;;;2.45;1.60;;;28.40;41.20;;;;;;5047877;28;20040;-67
2023/07/07 10:32:20;;;;;;;2.05;1.60;;;28.30;40.30;;;;;;5050679;28;20021;-67
2023/07/07 10:34:53;;;;;;;3.20;1.90;;;28.30;40.40;;;;;;5043879;28;20132;-67
2023/07/07 10:37:23;;;;;;;4.53;1.92;;;28.30;39.60;;;;;;5049904;28;20070;-67
2023/07/07 10:39:53;;;;;;;3.22;2.10;;;28.30;39.80;;;;;;5048685;28;20059;-67
2023/07/07 10:42:28;;;;;;;4.47;1.70;;;28.20;39.40;;;;;;5049374;28;20123;-67
2023/07/07 10:44:59;;;;;;;2.30;1.80;;;28.20;39.50;;;;;;5046218;28;20033;-66
2023/07/07 10:47:28;;;;;;;3.35;2.10;;;28.10;40.10;;;;;;5045713;28;20048;-67
2023/07/07 10:49:56;;;;;;;3.53;1.90;;;28.00;39.90;;;;;;5045754;28;20052;-70
2023/07/07 10:52:59;;;;;;;3.65;1.88;;;27.80;40.00;;;;;;5046355;28;20479;-69
2023/07/07 10:55:35;;;;;;;4.03;2.00;;;27.80;40.60;;;;;;5047659;28;20108;-69
2023/07/07 10:58:37;;;;;;;4.13;2.20;;;27.80;39.30;;;;;;5049567;28;20029;-69
2023/07/07 11:01:24;;;;;;;3.53;1.98;;;27.90;40.00;;;;;;5029138;28;20075;-69
2023/07/07 11:04:16;;;;;;;3.33;1.95;;;27.90;40.20;;;;;;5046797;28;20487;-69
2023/07/07 11:07:20;;;;;;;3.05;1.98;;;28.20;40.60;;;;;;5046468;28;20029;-69
2023/07/07 11:09:45;;;;;;;3.38;1.95;;;28.20;38.90;;;;;;5047520;28;20020;-69
2023/07/07 11:12:30;;;;;;;2.83;1.63;;;28.30;39.10;;;;;;5047040;28;20068;-69
2023/07/07 11:15:12;;;;;;;4.13;2.10;;;28.50;39.50;;;;;;5044442;28;20044;-69
2023/07/07 11:17:54;;;;;;;2.92;2.00;;;28.50;38.30;;;;;;5045237;28;20078;-69
2023/07/07 11:20:50;;;;;;;3.40;2.45;;;28.60;38.70;;;;;;5045068;28;20021;-69
2023/07/07 11:23:30;;;;;;;4.00;2.00;;;28.60;38.00;;;;;;5045001;28;20037;-69
2023/07/07 11:26:01;;;;;;;2.90;2.05;;;28.70;38.60;;;;;;5025871;28;20045;-70
2023/07/07 11:28:48;;;;;;;4.32;2.42;;;28.80;38.60;;;;;;5044599;28;20048;-70
2023/07/07 11:31:27;;;;;;;3.13;1.85;;;28.50;38.00;;;;;;5044384;28;20033;-70
2023/07/07 11:34:12;;;;;;;2.80;1.80;;;28.60;37.90;;;;;;5019307;28;20387;-69
2023/07/07 11:36:52;;;;;;;2.67;1.70;;;28.40;38.60;;;;;;5042159;28;20021;-70
2023/07/07 11:39:39;;;;;;;2.88;1.80;;;28.50;38.80;;;;;;5044210;28;20112;-69
2023/07/07 11:42:11;;;;;;;3.50;2.28;;;28.70;38.70;;;;;;5045527;28;20037;-70
2023/07/07 11:45:04;;;;;;;3.35;2.10;;;28.80;38.70;;;;;;5044160;28;20033;-70
2023/07/07 11:47:58;;;;;;;3.78;2.13;;;28.70;38.90;;;;;;5042723;28;20029;-69
2023/07/07 11:50:35;;;;;;;3.17;1.90;;;29.10;39.30;;;;;;5044644;28;20048;-69
2023/07/07 11:53:25;;;;;;;3.28;2.10;;;29.10;38.80;;;;;;5044736;28;20118;-69
2023/07/07 11:56:19;;;;;;;4.07;2.13;;;29.20;38.00;;;;;;5040755;28;20041;-69
2023/07/07 11:59:13;;;;;;;2.72;1.90;;;29.10;36.80;;;;;;5039904;28;20035;-69
2023/07/07 12:01:46;;;;;;;3.20;2.10;;;29.00;38.00;;;;;;5042726;28;20021;-69
2023/07/07 12:04:38;;;;;;;2.97;2.00;;;29.10;37.70;;;;;;5047474;28;20451;-69
2023/07/07 12:07:11;;;;;;;4.65;2.03;;;29.20;37.90;;;;;;5052553;28;20025;-70
2023/07/07 12:09:50;;;;;;;2.60;1.92;;;29.50;37.90;;;;;;5049823;28;20040;-69
2023/07/07 12:12:36;;;;;;;4.65;2.75;;;29.60;37.90;;;;;;5048621;28;20450;-67
2023/07/07 12:15:20;;;;;;;7.38;2.83;;;29.60;37.30;;;;;;5048481;28;20029;-67
2023/07/07 12:17:54;;;;;;;3.65;2.10;;;29.50;37.60;;;;;;5049539;28;20372;-67
2023/07/07 12:20:30;;;;;;;3.47;2.00;;;29.70;37.60;;;;;;5049902;28;20045;-68
2023/07/07 12:22:58;;;;;;;5.20;2.17;;;30.00;37.20;;;;;;5043984;28;20036;-67
2023/07/07 12:25:26;;;;;;;3.83;2.25;;;30.00;36.40;;;;;;5046525;28;20033;-67
2023/07/07 12:27:53;;;;;;;2.97;1.92;;;30.10;36.70;;;;;;5031106;28;20033;-67
2023/07/07 12:30:25;;;;;;;3.58;2.00;;;30.20;36.50;;;;;;5049074;28;20111;-67
2023/07/07 12:32:52;;;;;;;3.20;2.13;;;30.50;35.80;;;;;;5048038;28;20025;-67
2023/07/07 12:35:25;;;;;;;3.60;2.05;;;30.70;35.20;;;;;;5046667;28;20386;-69
2023/07/07 12:37:51;;;;;;;3.15;2.10;;;30.60;35.30;;;;;;5050791;28;20017;-68
2023/07/07 12:40:19;;;;;;;4.30;2.30;;;30.40;36.40;;;;;;5048436;28;20025;-68
2023/07/07 12:42:56;;;;;;;3.97;2.40;;;30.30;35.60;;;;;;5048582;28;20029;-68
2023/07/07 12:45:32;;;;;;;3.00;1.92;;;30.10;35.70;;;;;;5048122;28;20669;-68
2023/07/07 12:48:06;;;;;;;2.90;1.80;;;29.90;36.00;;;;;;5050034;28;20066;-68
2023/07/07 12:50:38;;;;;;;4.22;2.10;;;30.20;36.50;;;;;;5053176;28;20024;-68
2023/07/07 12:53:17;;;;;;;3.75;2.10;;;30.20;36.00;;;;;;5048989;28;20043;-68
2023/07/07 12:56:19;;;;;;;2.75;1.80;;;30.40;36.20;;;;;;5045791;28;20071;-67
2023/07/07 12:58:52;;;;;;;2.67;2.00;;;30.70;36.30;;;;;;5029005;28;20044;-68
2023/07/07 13:01:17;;;;;;;3.03;2.10;;;30.90;36.10;;;;;;5047913;28;20025;-68
2023/07/07 13:03:43;;;;;;;4.60;2.30;;;31.00;35.30;;;;;;5047053;28;20031;-68
2023/07/07 13:06:22;;;;;;;3.78;1.92;;;30.90;35.10;;;;;;5048833;28;20029;-68
2023/07/07 13:09:13;;;;;;;4.20;2.30;;;30.40;35.00;;;;;;5028762;28;20332;-68